sensor_id;sensor_type;location;lat;lon;timestamp;P1;durP1;ratioP1;P2;durP2;ratioP2
50683;SDS011;36654;45.042;38.994;2023-04-07T00:00:24;6.32;;;3.42;;
50683;SDS011;36654;45.042;38.994;2023-04-07T00:02:51;5.18;;;3.33;;
50683;SDS011;36654;45.042;38.994;2023-04-07T00:05:16;6.30;;;3.53;;
50683;SDS011;36654;45.042;38.994;2023-04-07T00:07:42;7.80;;;4.28;;
50683;SDS011;36654;45.042;38.994;2023-04-07T00:10:08;6.78;;;4.05;;
50683;SDS011;36654;45.042;38.994;2023-04-07T00:12:34;6.43;;;3.78;;
50683;SDS011;36654;45.042;38.994;2023-04-07T00:15:00;7.95;;;4.47;;
50683;SDS011;36654;45.042;38.994;2023-04-07T00:17:25;5.57;;;3.63;;
50683;SDS011;36654;45.042;38.994;2023-04-07T00:19:51;4.22;;;3.22;;
50683;SDS011;36654;45.042;38.994;2023-04-07T00:22:17;6.57;;;4.15;;
50683;SDS011;36654;45.042;38.994;2023-04-07T00:24:42;7.57;;;4.40;;
50683;SDS011;36654;45.042;38.994;2023-04-07T00:27:08;7.07;;;4.38;;
50683;SDS011;36654;45.042;38.994;2023-04-07T00:29:34;5.72;;;4.60;;
50683;SDS011;36654;45.042;38.994;2023-04-07T00:32:00;6.68;;;3.97;;
50683;SDS011;36654;45.042;38.994;2023-04-07T00:34:25;6.68;;;4.72;;
50683;SDS011;36654;45.042;38.994;2023-04-07T00:36:51;7.07;;;4.65;;
50683;SDS011;36654;45.042;38.994;2023-04-07T00:39:17;6.22;;;4.63;;
50683;SDS011;36654;45.042;38.994;2023-04-07T00:41:43;8.82;;;5.50;;
50683;SDS011;36654;45.042;38.994;2023-04-07T00:44:10;8.18;;;5.35;;
50683;SDS011;36654;45.042;38.994;2023-04-07T00:46:36;9.73;;;5.38;;
50683;SDS011;36654;45.042;38.994;2023-04-07T00:49:02;7.78;;;4.93;;
50683;SDS011;36654;45.042;38.994;2023-04-07T00:51:28;8.95;;;5.63;;
50683;SDS011;36654;45.042;38.994;2023-04-07T00:53:54;12.07;;;5.60;;
50683;SDS011;36654;45.042;38.994;2023-04-07T00:56:19;8.73;;;5.30;;
50683;SDS011;36654;45.042;38.994;2023-04-07T00:58:45;9.15;;;5.07;;
50683;SDS011;36654;45.042;38.994;2023-04-07T01:03:57;7.75;;;5.13;;
50683;SDS011;36654;45.042;38.994;2023-04-07T01:06:29;11.75;;;5.38;;
50683;SDS011;36654;45.042;38.994;2023-04-07T01:11:43;10.30;;;5.78;;
50683;SDS011;36654;45.042;38.994;2023-04-07T01:14:15;9.23;;;5.95;;
50683;SDS011;36654;45.042;38.994;2023-04-07T01:16:48;10.13;;;5.85;;
50683;SDS011;36654;45.042;38.994;2023-04-07T01:19:15;8.15;;;5.50;;
50683;SDS011;36654;45.042;38.994;2023-04-07T01:22:32;7.28;;;4.80;;
50683;SDS011;36654;45.042;38.994;2023-04-07T01:28:07;10.00;;;5.78;;
50683;SDS011;36654;45.042;38.994;2023-04-07T01:30:40;7.97;;;5.38;;
50683;SDS011;36654;45.042;38.994;2023-04-07T01:33:08;8.15;;;5.43;;
50683;SDS011;36654;45.042;38.994;2023-04-07T01:35:36;9.98;;;5.78;;
50683;SDS011;36654;45.042;38.994;2023-04-07T01:38:03;9.68;;;5.68;;
50683;SDS011;36654;45.042;38.994;2023-04-07T01:40:31;10.90;;;6.05;;
50683;SDS011;36654;45.042;38.994;2023-04-07T01:42:59;10.80;;;5.75;;
50683;SDS011;36654;45.042;38.994;2023-04-07T01:45:26;10.77;;;5.72;;
50683;SDS011;36654;45.042;38.994;2023-04-07T01:47:53;8.65;;;5.70;;
50683;SDS011;36654;45.042;38.994;2023-04-07T01:50:20;10.55;;;5.45;;
50683;SDS011;36654;45.042;38.994;2023-04-07T01:52:46;8.70;;;5.20;;
50683;SDS011;36654;45.042;38.994;2023-04-07T01:55:12;8.45;;;5.32;;
50683;SDS011;36654;45.042;38.994;2023-04-07T01:57:38;9.02;;;5.22;;
50683;SDS011;36654;45.042;38.994;2023-04-07T02:00:04;9.27;;;5.95;;
50683;SDS011;36654;45.042;38.994;2023-04-07T02:02:32;8.98;;;5.57;;
50683;SDS011;36654;45.042;38.994;2023-04-07T02:05:06;12.13;;;5.10;;
50683;SDS011;36654;45.042;38.994;2023-04-07T02:07:41;7.35;;;4.70;;
50683;SDS011;36654;45.042;38.994;2023-04-07T02:10:27;6.88;;;5.00;;
50683;SDS011;36654;45.042;38.994;2023-04-07T02:12:54;7.88;;;4.90;;
50683;SDS011;36654;45.042;38.994;2023-04-07T02:15:22;8.73;;;4.90;;
50683;SDS011;36654;45.042;38.994;2023-04-07T02:17:50;9.88;;;5.40;;
50683;SDS011;36654;45.042;38.994;2023-04-07T02:20:17;9.93;;;4.90;;
50683;SDS011;36654;45.042;38.994;2023-04-07T02:22:45;10.27;;;5.25;;
50683;SDS011;36654;45.042;38.994;2023-04-07T02:25:21;8.43;;;5.20;;
50683;SDS011;36654;45.042;38.994;2023-04-07T02:27:51;7.38;;;4.68;;
50683;SDS011;36654;45.042;38.994;2023-04-07T02:30:17;9.18;;;4.68;;
50683;SDS011;36654;45.042;38.994;2023-04-07T02:32:43;9.82;;;5.75;;
50683;SDS011;36654;45.042;38.994;2023-04-07T02:35:10;9.23;;;5.53;;
50683;SDS011;36654;45.042;38.994;2023-04-07T02:37:36;6.60;;;4.40;;
50683;SDS011;36654;45.042;38.994;2023-04-07T02:40:02;7.15;;;4.88;;
50683;SDS011;36654;45.042;38.994;2023-04-07T02:42:29;7.68;;;4.50;;
50683;SDS011;36654;45.042;38.994;2023-04-07T02:44:54;9.57;;;4.65;;
50683;SDS011;36654;45.042;38.994;2023-04-07T02:47:20;10.73;;;5.03;;
50683;SDS011;36654;45.042;38.994;2023-04-07T02:49:46;6.38;;;4.07;;
50683;SDS011;36654;45.042;38.994;2023-04-07T02:52:11;5.85;;;4.13;;
50683;SDS011;36654;45.042;38.994;2023-04-07T02:54:37;5.20;;;3.50;;
50683;SDS011;36654;45.042;38.994;2023-04-07T02:57:03;7.10;;;3.50;;
50683;SDS011;36654;45.042;38.994;2023-04-07T02:59:28;4.43;;;3.58;;
50683;SDS011;36654;45.042;38.994;2023-04-07T03:01:54;6.20;;;3.50;;
50683;SDS011;36654;45.042;38.994;2023-04-07T03:04:20;6.25;;;3.42;;
50683;SDS011;36654;45.042;38.994;2023-04-07T03:06:46;4.88;;;3.60;;
50683;SDS011;36654;45.042;38.994;2023-04-07T03:09:14;4.90;;;3.30;;
50683;SDS011;36654;45.042;38.994;2023-04-07T03:11:40;7.32;;;4.18;;
50683;SDS011;36654;45.042;38.994;2023-04-07T03:14:05;6.70;;;4.28;;
50683;SDS011;36654;45.042;38.994;2023-04-07T03:16:31;6.60;;;4.43;;
50683;SDS011;36654;45.042;38.994;2023-04-07T03:18:57;6.07;;;3.83;;
50683;SDS011;36654;45.042;38.994;2023-04-07T03:21:23;6.68;;;4.38;;
50683;SDS011;36654;45.042;38.994;2023-04-07T03:23:48;5.80;;;4.22;;
50683;SDS011;36654;45.042;38.994;2023-04-07T03:26:14;6.50;;;4.05;;
50683;SDS011;36654;45.042;38.994;2023-04-07T03:28:40;6.30;;;3.92;;
50683;SDS011;36654;45.042;38.994;2023-04-07T03:31:08;7.15;;;4.10;;
50683;SDS011;36654;45.042;38.994;2023-04-07T03:33:34;9.00;;;3.60;;
50683;SDS011;36654;45.042;38.994;2023-04-07T03:36:00;6.05;;;3.85;;
50683;SDS011;36654;45.042;38.994;2023-04-07T03:38:25;5.13;;;3.83;;
50683;SDS011;36654;45.042;38.994;2023-04-07T03:40:51;4.93;;;3.72;;
50683;SDS011;36654;45.042;38.994;2023-04-07T03:43:16;4.82;;;3.15;;
50683;SDS011;36654;45.042;38.994;2023-04-07T03:45:42;4.55;;;2.92;;
50683;SDS011;36654;45.042;38.994;2023-04-07T03:48:08;4.60;;;3.53;;
50683;SDS011;36654;45.042;38.994;2023-04-07T03:50:40;5.78;;;2.97;;
50683;SDS011;36654;45.042;38.994;2023-04-07T03:53:06;4.75;;;3.47;;
50683;SDS011;36654;45.042;38.994;2023-04-07T03:55:32;8.27;;;4.13;;
50683;SDS011;36654;45.042;38.994;2023-04-07T03:57:58;6.20;;;3.47;;
50683;SDS011;36654;45.042;38.994;2023-04-07T04:00:24;7.03;;;4.03;;
50683;SDS011;36654;45.042;38.994;2023-04-07T04:02:51;5.85;;;3.58;;
50683;SDS011;36654;45.042;38.994;2023-04-07T04:05:17;6.32;;;3.85;;
50683;SDS011;36654;45.042;38.994;2023-04-07T04:07:42;5.80;;;3.83;;
50683;SDS011;36654;45.042;38.994;2023-04-07T04:10:08;6.55;;;4.05;;
50683;SDS011;36654;45.042;38.994;2023-04-07T04:12:34;6.70;;;4.22;;
50683;SDS011;36654;45.042;38.994;2023-04-07T04:15:00;6.70;;;4.10;;
50683;SDS011;36654;45.042;38.994;2023-04-07T04:17:26;7.43;;;3.58;;
50683;SDS011;36654;45.042;38.994;2023-04-07T04:19:51;7.88;;;4.70;;
50683;SDS011;36654;45.042;38.994;2023-04-07T04:22:21;6.13;;;4.10;;
50683;SDS011;36654;45.042;38.994;2023-04-07T04:24:47;6.47;;;4.22;;
50683;SDS011;36654;45.042;38.994;2023-04-07T04:27:12;7.05;;;4.38;;
50683;SDS011;36654;45.042;38.994;2023-04-07T04:29:38;7.40;;;4.10;;
50683;SDS011;36654;45.042;38.994;2023-04-07T04:32:04;6.85;;;4.07;;
50683;SDS011;36654;45.042;38.994;2023-04-07T04:34:29;6.18;;;3.95;;
50683;SDS011;36654;45.042;38.994;2023-04-07T04:36:55;7.47;;;4.43;;
50683;SDS011;36654;45.042;38.994;2023-04-07T04:39:21;5.32;;;4.05;;
50683;SDS011;36654;45.042;38.994;2023-04-07T04:41:46;11.45;;;5.30;;
50683;SDS011;36654;45.042;38.994;2023-04-07T04:44:12;8.15;;;4.32;;
50683;SDS011;36654;45.042;38.994;2023-04-07T04:46:38;7.93;;;5.07;;
50683;SDS011;36654;45.042;38.994;2023-04-07T04:49:03;10.18;;;4.88;;
50683;SDS011;36654;45.042;38.994;2023-04-07T04:51:30;7.90;;;5.05;;
50683;SDS011;36654;45.042;38.994;2023-04-07T04:53:56;8.38;;;5.32;;
50683;SDS011;36654;45.042;38.994;2023-04-07T04:56:21;7.35;;;4.68;;
50683;SDS011;36654;45.042;38.994;2023-04-07T04:58:47;11.45;;;6.32;;
50683;SDS011;36654;45.042;38.994;2023-04-07T05:01:12;9.68;;;5.43;;
50683;SDS011;36654;45.042;38.994;2023-04-07T05:03:38;7.55;;;5.60;;
50683;SDS011;36654;45.042;38.994;2023-04-07T05:06:04;9.13;;;6.13;;
50683;SDS011;36654;45.042;38.994;2023-04-07T05:08:30;7.90;;;5.80;;
50683;SDS011;36654;45.042;38.994;2023-04-07T05:10:56;8.82;;;5.72;;
50683;SDS011;36654;45.042;38.994;2023-04-07T05:13:22;9.00;;;5.55;;
50683;SDS011;36654;45.042;38.994;2023-04-07T05:15:49;8.65;;;5.68;;
50683;SDS011;36654;45.042;38.994;2023-04-07T05:18:15;8.88;;;5.57;;
50683;SDS011;36654;45.042;38.994;2023-04-07T05:20:41;33.60;;;18.95;;
50683;SDS011;36654;45.042;38.994;2023-04-07T05:23:08;30.15;;;16.15;;
50683;SDS011;36654;45.042;38.994;2023-04-07T05:25:34;9.85;;;6.25;;
50683;SDS011;36654;45.042;38.994;2023-04-07T05:27:59;10.75;;;6.22;;
50683;SDS011;36654;45.042;38.994;2023-04-07T05:30:25;10.88;;;5.88;;
50683;SDS011;36654;45.042;38.994;2023-04-07T05:32:51;9.65;;;6.15;;
50683;SDS011;36654;45.042;38.994;2023-04-07T05:35:17;10.15;;;5.65;;
50683;SDS011;36654;45.042;38.994;2023-04-07T05:37:43;9.65;;;5.65;;
50683;SDS011;36654;45.042;38.994;2023-04-07T05:40:09;9.70;;;5.05;;
50683;SDS011;36654;45.042;38.994;2023-04-07T05:42:35;12.57;;;5.47;;
50683;SDS011;36654;45.042;38.994;2023-04-07T05:45:00;8.55;;;5.03;;
50683;SDS011;36654;45.042;38.994;2023-04-07T05:47:26;8.02;;;5.10;;
50683;SDS011;36654;45.042;38.994;2023-04-07T05:49:51;6.07;;;4.38;;
50683;SDS011;36654;45.042;38.994;2023-04-07T05:52:17;10.93;;;4.75;;
50683;SDS011;36654;45.042;38.994;2023-04-07T05:54:43;8.35;;;4.80;;
50683;SDS011;36654;45.042;38.994;2023-04-07T05:57:09;8.93;;;4.78;;
50683;SDS011;36654;45.042;38.994;2023-04-07T05:59:34;8.07;;;5.15;;
50683;SDS011;36654;45.042;38.994;2023-04-07T06:02:01;7.50;;;4.70;;
50683;SDS011;36654;45.042;38.994;2023-04-07T06:04:27;11.20;;;4.90;;
50683;SDS011;36654;45.042;38.994;2023-04-07T06:06:53;9.98;;;5.47;;
50683;SDS011;36654;45.042;38.994;2023-04-07T06:09:22;8.88;;;5.40;;
50683;SDS011;36654;45.042;38.994;2023-04-07T06:11:48;12.07;;;6.53;;
50683;SDS011;36654;45.042;38.994;2023-04-07T06:14:15;11.18;;;5.95;;
50683;SDS011;36654;45.042;38.994;2023-04-07T06:16:42;9.00;;;5.93;;
50683;SDS011;36654;45.042;38.994;2023-04-07T06:19:07;9.20;;;5.60;;
50683;SDS011;36654;45.042;38.994;2023-04-07T06:21:33;8.88;;;5.72;;
50683;SDS011;36654;45.042;38.994;2023-04-07T06:23:59;33.10;;;17.00;;
50683;SDS011;36654;45.042;38.994;2023-04-07T06:26:24;12.70;;;7.28;;
50683;SDS011;36654;45.042;38.994;2023-04-07T06:28:51;14.02;;;7.05;;
50683;SDS011;36654;45.042;38.994;2023-04-07T06:31:17;11.10;;;6.40;;
50683;SDS011;36654;45.042;38.994;2023-04-07T06:33:43;9.68;;;6.10;;
50683;SDS011;36654;45.042;38.994;2023-04-07T06:36:10;10.70;;;5.85;;
50683;SDS011;36654;45.042;38.994;2023-04-07T06:38:36;15.05;;;6.65;;
50683;SDS011;36654;45.042;38.994;2023-04-07T06:41:02;9.80;;;5.90;;
50683;SDS011;36654;45.042;38.994;2023-04-07T06:43:28;9.63;;;5.32;;
50683;SDS011;36654;45.042;38.994;2023-04-07T06:45:54;8.93;;;6.45;;
50683;SDS011;36654;45.042;38.994;2023-04-07T06:48:20;10.23;;;6.82;;
50683;SDS011;36654;45.042;38.994;2023-04-07T06:50:48;11.93;;;7.93;;
50683;SDS011;36654;45.042;38.994;2023-04-07T06:53:14;7.20;;;5.80;;
50683;SDS011;36654;45.042;38.994;2023-04-07T06:55:39;13.40;;;7.03;;
50683;SDS011;36654;45.042;38.994;2023-04-07T06:58:05;16.40;;;6.85;;
50683;SDS011;36654;45.042;38.994;2023-04-07T07:00:31;12.95;;;6.22;;
50683;SDS011;36654;45.042;38.994;2023-04-07T07:02:57;9.63;;;6.22;;
50683;SDS011;36654;45.042;38.994;2023-04-07T07:05:22;10.55;;;7.20;;
50683;SDS011;36654;45.042;38.994;2023-04-07T07:07:49;10.38;;;6.35;;
50683;SDS011;36654;45.042;38.994;2023-04-07T07:10:15;17.33;;;10.10;;
50683;SDS011;36654;45.042;38.994;2023-04-07T07:12:41;10.90;;;6.95;;
50683;SDS011;36654;45.042;38.994;2023-04-07T07:15:07;12.10;;;6.15;;
50683;SDS011;36654;45.042;38.994;2023-04-07T07:17:33;14.00;;;8.05;;
50683;SDS011;36654;45.042;38.994;2023-04-07T07:20:00;10.38;;;5.78;;
50683;SDS011;36654;45.042;38.994;2023-04-07T07:22:25;21.80;;;13.18;;
50683;SDS011;36654;45.042;38.994;2023-04-07T07:24:51;34.03;;;22.13;;
50683;SDS011;36654;45.042;38.994;2023-04-07T07:27:16;18.65;;;11.30;;
50683;SDS011;36654;45.042;38.994;2023-04-07T07:29:42;15.13;;;10.02;;
50683;SDS011;36654;45.042;38.994;2023-04-07T07:32:08;18.23;;;10.98;;
50683;SDS011;36654;45.042;38.994;2023-04-07T07:34:33;16.00;;;10.40;;
50683;SDS011;36654;45.042;38.994;2023-04-07T07:36:59;12.07;;;7.07;;
50683;SDS011;36654;45.042;38.994;2023-04-07T07:39:25;8.52;;;5.45;;
50683;SDS011;36654;45.042;38.994;2023-04-07T07:41:51;12.55;;;8.88;;
50683;SDS011;36654;45.042;38.994;2023-04-07T07:44:17;14.23;;;11.45;;
50683;SDS011;36654;45.042;38.994;2023-04-07T07:46:44;10.15;;;6.53;;
50683;SDS011;36654;45.042;38.994;2023-04-07T07:49:10;7.30;;;5.75;;
50683;SDS011;36654;45.042;38.994;2023-04-07T07:51:35;7.60;;;4.72;;
50683;SDS011;36654;45.042;38.994;2023-04-07T07:54:01;8.55;;;5.72;;
50683;SDS011;36654;45.042;38.994;2023-04-07T07:56:27;9.23;;;5.45;;
50683;SDS011;36654;45.042;38.994;2023-04-07T07:58:53;7.78;;;5.97;;
50683;SDS011;36654;45.042;38.994;2023-04-07T08:01:19;9.88;;;5.13;;
50683;SDS011;36654;45.042;38.994;2023-04-07T08:03:45;7.35;;;4.70;;
50683;SDS011;36654;45.042;38.994;2023-04-07T08:06:11;8.18;;;5.35;;
50683;SDS011;36654;45.042;38.994;2023-04-07T08:08:37;9.05;;;5.47;;
50683;SDS011;36654;45.042;38.994;2023-04-07T08:11:02;12.45;;;7.63;;
50683;SDS011;36654;45.042;38.994;2023-04-07T08:13:28;16.33;;;11.00;;
50683;SDS011;36654;45.042;38.994;2023-04-07T08:15:54;11.73;;;7.82;;
50683;SDS011;36654;45.042;38.994;2023-04-07T08:18:20;10.10;;;6.68;;
50683;SDS011;36654;45.042;38.994;2023-04-07T08:20:45;13.38;;;6.75;;
50683;SDS011;36654;45.042;38.994;2023-04-07T08:23:11;9.45;;;6.22;;
50683;SDS011;36654;45.042;38.994;2023-04-07T08:25:37;14.82;;;8.50;;
50683;SDS011;36654;45.042;38.994;2023-04-07T08:28:05;21.52;;;11.52;;
50683;SDS011;36654;45.042;38.994;2023-04-07T08:30:31;20.60;;;9.55;;
50683;SDS011;36654;45.042;38.994;2023-04-07T08:32:56;9.70;;;6.65;;
50683;SDS011;36654;45.042;38.994;2023-04-07T08:35:22;15.85;;;7.28;;
50683;SDS011;36654;45.042;38.994;2023-04-07T08:37:48;10.77;;;5.53;;
50683;SDS011;36654;45.042;38.994;2023-04-07T08:40:14;5.72;;;5.13;;
50683;SDS011;36654;45.042;38.994;2023-04-07T08:42:41;10.43;;;6.22;;
50683;SDS011;36654;45.042;38.994;2023-04-07T08:45:13;9.23;;;5.88;;
50683;SDS011;36654;45.042;38.994;2023-04-07T08:47:41;9.07;;;6.00;;
50683;SDS011;36654;45.042;38.994;2023-04-07T08:50:08;13.88;;;6.75;;
50683;SDS011;36654;45.042;38.994;2023-04-07T08:55:20;10.60;;;5.88;;
50683;SDS011;36654;45.042;38.994;2023-04-07T08:57:45;8.45;;;5.75;;
50683;SDS011;36654;45.042;38.994;2023-04-07T09:00:12;7.45;;;5.45;;
50683;SDS011;36654;45.042;38.994;2023-04-07T09:02:39;8.73;;;6.13;;
50683;SDS011;36654;45.042;38.994;2023-04-07T09:05:07;11.65;;;6.40;;
50683;SDS011;36654;45.042;38.994;2023-04-07T09:07:34;11.70;;;6.95;;
50683;SDS011;36654;45.042;38.994;2023-04-07T09:10:01;10.25;;;6.00;;
50683;SDS011;36654;45.042;38.994;2023-04-07T09:12:28;8.85;;;6.35;;
50683;SDS011;36654;45.042;38.994;2023-04-07T09:14:54;10.13;;;6.57;;
50683;SDS011;36654;45.042;38.994;2023-04-07T09:17:20;9.55;;;6.07;;
50683;SDS011;36654;45.042;38.994;2023-04-07T09:19:46;9.95;;;6.80;;
50683;SDS011;36654;45.042;38.994;2023-04-07T09:22:13;13.65;;;6.72;;
50683;SDS011;36654;45.042;38.994;2023-04-07T09:24:39;12.23;;;6.80;;
50683;SDS011;36654;45.042;38.994;2023-04-07T09:27:09;10.88;;;6.95;;
50683;SDS011;36654;45.042;38.994;2023-04-07T09:29:36;11.43;;;8.18;;
50683;SDS011;36654;45.042;38.994;2023-04-07T09:32:03;10.32;;;7.60;;
50683;SDS011;36654;45.042;38.994;2023-04-07T09:34:29;12.35;;;6.75;;
50683;SDS011;36654;45.042;38.994;2023-04-07T09:36:59;12.90;;;8.13;;
50683;SDS011;36654;45.042;38.994;2023-04-07T09:39:26;13.07;;;7.50;;
50683;SDS011;36654;45.042;38.994;2023-04-07T09:41:51;12.77;;;7.32;;
50683;SDS011;36654;45.042;38.994;2023-04-07T09:44:21;10.77;;;6.97;;
50683;SDS011;36654;45.042;38.994;2023-04-07T09:46:51;10.43;;;7.25;;
50683;SDS011;36654;45.042;38.994;2023-04-07T09:49:19;11.32;;;6.63;;
50683;SDS011;36654;45.042;38.994;2023-04-07T09:51:58;14.05;;;6.90;;
50683;SDS011;36654;45.042;38.994;2023-04-07T09:57:02;10.07;;;7.22;;
50683;SDS011;36654;45.042;38.994;2023-04-07T09:59:29;10.25;;;7.05;;
50683;SDS011;36654;45.042;38.994;2023-04-07T10:01:55;12.73;;;6.80;;
50683;SDS011;36654;45.042;38.994;2023-04-07T10:04:22;10.55;;;8.00;;
50683;SDS011;36654;45.042;38.994;2023-04-07T10:06:48;11.00;;;7.65;;
50683;SDS011;36654;45.042;38.994;2023-04-07T10:09:16;15.13;;;8.55;;
50683;SDS011;36654;45.042;38.994;2023-04-07T10:11:43;28.15;;;15.38;;
50683;SDS011;36654;45.042;38.994;2023-04-07T10:14:10;11.80;;;8.73;;
50683;SDS011;36654;45.042;38.994;2023-04-07T10:16:39;16.08;;;9.35;;
50683;SDS011;36654;45.042;38.994;2023-04-07T10:19:06;11.48;;;7.38;;
50683;SDS011;36654;45.042;38.994;2023-04-07T10:21:37;13.15;;;8.43;;
50683;SDS011;36654;45.042;38.994;2023-04-07T10:24:12;10.05;;;7.53;;
50683;SDS011;36654;45.042;38.994;2023-04-07T10:26:52;13.70;;;8.27;;
50683;SDS011;36654;45.042;38.994;2023-04-07T10:29:22;10.80;;;8.02;;
50683;SDS011;36654;45.042;38.994;2023-04-07T10:31:50;11.05;;;8.25;;
50683;SDS011;36654;45.042;38.994;2023-04-07T10:34:16;11.50;;;8.40;;
50683;SDS011;36654;45.042;38.994;2023-04-07T10:39:34;14.82;;;9.32;;
50683;SDS011;36654;45.042;38.994;2023-04-07T10:42:01;11.63;;;8.73;;
50683;SDS011;36654;45.042;38.994;2023-04-07T10:47:06;19.25;;;9.43;;
50683;SDS011;36654;45.042;38.994;2023-04-07T10:49:32;17.08;;;9.55;;
50683;SDS011;36654;45.042;38.994;2023-04-07T10:54:36;14.18;;;10.05;;
50683;SDS011;36654;45.042;38.994;2023-04-07T10:57:09;14.43;;;9.00;;
50683;SDS011;36654;45.042;38.994;2023-04-07T11:00:15;12.25;;;9.80;;
50683;SDS011;36654;45.042;38.994;2023-04-07T11:02:34;15.23;;;10.20;;
50683;SDS011;36654;45.042;38.994;2023-04-07T11:05:02;15.23;;;10.43;;
50683;SDS011;36654;45.042;38.994;2023-04-07T11:07:44;28.33;;;19.48;;
50683;SDS011;36654;45.042;38.994;2023-04-07T11:10:13;14.43;;;9.73;;
50683;SDS011;36654;45.042;38.994;2023-04-07T11:12:40;14.75;;;11.18;;
50683;SDS011;36654;45.042;38.994;2023-04-07T11:15:19;27.98;;;18.63;;
50683;SDS011;36654;45.042;38.994;2023-04-07T11:17:46;17.30;;;10.63;;
50683;SDS011;36654;45.042;38.994;2023-04-07T11:20:41;14.05;;;10.55;;
50683;SDS011;36654;45.042;38.994;2023-04-07T11:23:08;13.68;;;9.88;;
50683;SDS011;36654;45.042;38.994;2023-04-07T11:25:34;16.85;;;10.43;;
50683;SDS011;36654;45.042;38.994;2023-04-07T11:28:02;12.30;;;9.43;;
50683;SDS011;36654;45.042;38.994;2023-04-07T11:30:28;18.85;;;10.52;;
50683;SDS011;36654;45.042;38.994;2023-04-07T11:32:54;14.10;;;10.27;;
50683;SDS011;36654;45.042;38.994;2023-04-07T11:35:21;13.95;;;9.73;;
50683;SDS011;36654;45.042;38.994;2023-04-07T11:37:47;16.20;;;11.18;;
50683;SDS011;36654;45.042;38.994;2023-04-07T11:40:21;11.70;;;8.63;;
50683;SDS011;36654;45.042;38.994;2023-04-07T11:42:58;13.20;;;10.00;;
50683;SDS011;36654;45.042;38.994;2023-04-07T11:45:24;14.63;;;11.23;;
50683;SDS011;36654;45.042;38.994;2023-04-07T11:47:49;14.07;;;10.68;;
50683;SDS011;36654;45.042;38.994;2023-04-07T11:50:15;12.95;;;10.00;;
50683;SDS011;36654;45.042;38.994;2023-04-07T11:52:44;14.68;;;10.98;;
50683;SDS011;36654;45.042;38.994;2023-04-07T11:55:21;16.00;;;11.23;;
50683;SDS011;36654;45.042;38.994;2023-04-07T11:57:50;15.05;;;11.32;;
50683;SDS011;36654;45.042;38.994;2023-04-07T12:00:16;15.27;;;11.40;;
50683;SDS011;36654;45.042;38.994;2023-04-07T12:02:43;14.80;;;11.50;;
50683;SDS011;36654;45.042;38.994;2023-04-07T12:05:09;14.82;;;11.25;;
50683;SDS011;36654;45.042;38.994;2023-04-07T12:07:35;16.25;;;11.50;;
50683;SDS011;36654;45.042;38.994;2023-04-07T12:10:17;18.58;;;10.73;;
50683;SDS011;36654;45.042;38.994;2023-04-07T12:12:47;14.95;;;10.48;;
50683;SDS011;36654;45.042;38.994;2023-04-07T12:15:13;16.30;;;11.02;;
50683;SDS011;36654;45.042;38.994;2023-04-07T12:17:43;18.20;;;11.68;;
50683;SDS011;36654;45.042;38.994;2023-04-07T12:20:10;17.15;;;11.77;;
50683;SDS011;36654;45.042;38.994;2023-04-07T12:22:36;15.60;;;10.82;;
50683;SDS011;36654;45.042;38.994;2023-04-07T12:25:02;15.93;;;10.60;;
50683;SDS011;36654;45.042;38.994;2023-04-07T12:27:27;15.77;;;10.52;;
50683;SDS011;36654;45.042;38.994;2023-04-07T12:29:53;20.08;;;11.73;;
50683;SDS011;36654;45.042;38.994;2023-04-07T12:32:19;16.67;;;10.23;;
50683;SDS011;36654;45.042;38.994;2023-04-07T12:34:45;16.67;;;11.20;;
50683;SDS011;36654;45.042;38.994;2023-04-07T12:37:11;19.58;;;10.90;;
50683;SDS011;36654;45.042;38.994;2023-04-07T12:39:37;23.42;;;13.25;;
50683;SDS011;36654;45.042;38.994;2023-04-07T12:42:03;19.52;;;12.30;;
50683;SDS011;36654;45.042;38.994;2023-04-07T12:44:29;19.05;;;11.20;;
50683;SDS011;36654;45.042;38.994;2023-04-07T12:46:55;19.65;;;11.68;;
50683;SDS011;36654;45.042;38.994;2023-04-07T12:49:20;16.70;;;11.02;;
50683;SDS011;36654;45.042;38.994;2023-04-07T12:51:46;19.20;;;11.30;;
50683;SDS011;36654;45.042;38.994;2023-04-07T12:54:12;13.85;;;9.73;;
50683;SDS011;36654;45.042;38.994;2023-04-07T12:56:38;15.25;;;10.05;;
50683;SDS011;36654;45.042;38.994;2023-04-07T12:59:06;15.60;;;10.25;;
50683;SDS011;36654;45.042;38.994;2023-04-07T13:01:32;15.82;;;9.50;;
50683;SDS011;36654;45.042;38.994;2023-04-07T13:03:59;19.50;;;10.15;;
50683;SDS011;36654;45.042;38.994;2023-04-07T13:06:26;15.13;;;9.35;;
50683;SDS011;36654;45.042;38.994;2023-04-07T13:08:51;16.38;;;9.23;;
50683;SDS011;36654;45.042;38.994;2023-04-07T13:11:17;18.90;;;10.65;;
50683;SDS011;36654;45.042;38.994;2023-04-07T13:13:43;14.40;;;8.90;;
50683;SDS011;36654;45.042;38.994;2023-04-07T13:16:08;16.83;;;9.57;;
50683;SDS011;36654;45.042;38.994;2023-04-07T13:18:34;16.55;;;8.95;;
50683;SDS011;36654;45.042;38.994;2023-04-07T13:21:00;18.98;;;9.45;;
50683;SDS011;36654;45.042;38.994;2023-04-07T13:23:26;15.40;;;8.98;;
50683;SDS011;36654;45.042;38.994;2023-04-07T13:25:52;12.68;;;8.60;;
50683;SDS011;36654;45.042;38.994;2023-04-07T13:28:18;17.88;;;9.00;;
50683;SDS011;36654;45.042;38.994;2023-04-07T13:30:45;16.15;;;9.07;;
50683;SDS011;36654;45.042;38.994;2023-04-07T13:33:11;15.23;;;8.75;;
50683;SDS011;36654;45.042;38.994;2023-04-07T13:35:37;15.02;;;9.02;;
50683;SDS011;36654;45.042;38.994;2023-04-07T13:38:03;16.73;;;8.70;;
50683;SDS011;36654;45.042;38.994;2023-04-07T13:40:29;14.10;;;8.93;;
50683;SDS011;36654;45.042;38.994;2023-04-07T13:42:55;18.70;;;9.65;;
50683;SDS011;36654;45.042;38.994;2023-04-07T13:45:25;14.48;;;9.13;;
50683;SDS011;36654;45.042;38.994;2023-04-07T13:47:51;15.45;;;9.02;;
50683;SDS011;36654;45.042;38.994;2023-04-07T13:50:17;14.90;;;8.85;;
50683;SDS011;36654;45.042;38.994;2023-04-07T13:52:42;18.30;;;9.52;;
50683;SDS011;36654;45.042;38.994;2023-04-07T13:55:08;15.00;;;8.18;;
50683;SDS011;36654;45.042;38.994;2023-04-07T13:57:34;11.35;;;8.38;;
50683;SDS011;36654;45.042;38.994;2023-04-07T13:59:59;12.93;;;7.13;;
50683;SDS011;36654;45.042;38.994;2023-04-07T14:02:25;11.40;;;7.13;;
50683;SDS011;36654;45.042;38.994;2023-04-07T14:04:56;18.08;;;8.60;;
50683;SDS011;36654;45.042;38.994;2023-04-07T14:07:21;16.35;;;8.02;;
50683;SDS011;36654;45.042;38.994;2023-04-07T14:09:47;15.38;;;8.23;;
50683;SDS011;36654;45.042;38.994;2023-04-07T14:12:13;13.98;;;7.85;;
50683;SDS011;36654;45.042;38.994;2023-04-07T14:14:42;14.18;;;8.50;;
50683;SDS011;36654;45.042;38.994;2023-04-07T14:17:08;12.68;;;7.97;;
50683;SDS011;36654;45.042;38.994;2023-04-07T14:19:37;17.75;;;10.27;;
50683;SDS011;36654;45.042;38.994;2023-04-07T14:25:33;20.17;;;8.65;;
50683;SDS011;36654;45.042;38.994;2023-04-07T14:27:59;14.55;;;9.27;;
50683;SDS011;36654;45.042;38.994;2023-04-07T14:30:25;15.95;;;9.23;;
50683;SDS011;36654;45.042;38.994;2023-04-07T14:32:50;14.20;;;10.38;;
50683;SDS011;36654;45.042;38.994;2023-04-07T14:35:17;17.10;;;12.50;;
50683;SDS011;36654;45.042;38.994;2023-04-07T14:37:43;15.85;;;11.48;;
50683;SDS011;36654;45.042;38.994;2023-04-07T14:40:08;17.08;;;11.98;;
50683;SDS011;36654;45.042;38.994;2023-04-07T14:42:34;15.90;;;12.02;;
50683;SDS011;36654;45.042;38.994;2023-04-07T14:45:01;21.20;;;12.13;;
50683;SDS011;36654;45.042;38.994;2023-04-07T14:47:26;16.13;;;11.70;;
50683;SDS011;36654;45.042;38.994;2023-04-07T14:49:52;19.13;;;12.38;;